Huvudsida
METAR-TAF:

METAR-TAF

Flygplatser :

Palangas internationella flygplats

Palanga, Litauen

latitud: 55-55-12N, longitud: 021-03E, höjd: 10 m

Aktuellt väderrapport

Denna rapport gjordes för 23 minuter sedan, klockan 23:20 UTC
Vind 8 kt från syd/sydost
Temperatur 8°C
Fuktighet 87%
Tryck 1015 hPa
Sikt: 9000 m

METAR: EYPA 182320Z AUTO 15008KT 9000 OVC010/// 08/06 Q1015

Tid: 01:43 (23:43 UTC)

Väderprognos

Denna rapport gjordes för 43 minuter sedan, klockan 23:00 UTC
Prognos gäller från 19 kl. 00 UTC till 19 kl. 24 UTC
Vind 15 kt från syd/sydost
Sikt: 5000 m
Mulet på en höjd av 1000 ft
fuktdis
Temporärt
från 19 kl. 00 UTC till 19 kl. 06 UTC
Sikt: 3000 m
Mulet på en höjd av 400 ft
regn
Blir
från 19 kl. 08 UTC till 19 kl. 09 UTC
Brutna moln på en höjd av 1500 ft
Blir
från 19 kl. 18 UTC till 19 kl. 19 UTC
Sikt: 2000 m
Brutna moln på en höjd av 400 ft

TAF: EYPA 182300Z 1900/1924 16015KT 5000 BR OVC010 TEMPO 1900/1906 3000 RA OVC004 BECMG 1908/1909 BKN015 BECMG 1918/1919 2000 BKN004

Aktuella väderrapporter och prognoser från 4000 flygplatser (METAR- och TAF-rapporter).

De tillgängliga stationerna syns som gula och röda prickar på kartan.

För musen över prickarna för att se namnen på stationerna.

Klicka sedan för att få väderrapporter och prognoser.

För att ändra kartan: Klicka på de gröna knapparna med ett svart kors på för att zooma in; den gröna knappen med ett streck på för att zooma ut; eller på de gröna pilarna för angränsande kartor.


METAR-TAF: